createdAt,value
2023-02-11T00:00:07.213Z,32.17
2023-02-11T00:01:38.811Z,31.50
2023-02-11T00:03:10.526Z,30.15
2023-02-11T00:04:44.732Z,32.53
2023-02-11T00:06:16.769Z,30.52
2023-02-11T00:07:48.412Z,29.73
2023-02-11T00:09:21.540Z,29.60
2023-02-11T00:10:53.544Z,30.15
2023-02-11T00:12:25.587Z,30.40
2023-02-11T00:13:57.439Z,32.17
2023-02-11T00:15:29.204Z,30.27
2023-02-11T00:17:01.009Z,29.65
2023-02-11T00:18:36.546Z,29.05
2023-02-11T00:20:09.305Z,31.38
2023-02-11T00:21:41.035Z,29.48
2023-02-11T00:23:12.909Z,29.17
2023-02-11T00:24:46.187Z,27.30
2023-02-11T00:26:18.751Z,29.27
2023-02-11T00:27:50.429Z,31.08
2023-02-11T00:29:22.335Z,28.65
2023-02-11T00:30:55.247Z,27.75
2023-02-11T00:32:27.025Z,29.85
2023-02-11T00:33:58.913Z,29.48
2023-02-11T00:35:30.594Z,28.90
2023-02-11T00:37:02.265Z,28.33
2023-02-11T00:38:33.964Z,29.38
2023-02-11T00:40:08.462Z,28.30
2023-02-11T00:41:40.119Z,27.25
2023-02-11T00:43:11.732Z,27.83
2023-02-11T00:44:43.364Z,28.63
2023-02-11T00:46:15.185Z,28.42
2023-02-11T00:47:46.919Z,29.67
2023-02-11T00:49:18.619Z,29.55
2023-02-11T00:50:50.440Z,27.90
2023-02-11T00:52:22.141Z,27.73
2023-02-11T00:53:53.891Z,28.35
2023-02-11T00:55:29.473Z,28.85
2023-02-11T00:57:01.152Z,28.42
2023-02-11T00:58:32.883Z,28.08
2023-02-11T01:00:04.994Z,29.20
2023-02-11T01:01:36.843Z,28.58
2023-02-11T01:03:08.834Z,29.02
2023-02-11T01:04:40.471Z,26.58
2023-02-11T01:06:12.117Z,27.35
2023-02-11T01:07:43.806Z,26.88
2023-02-11T01:09:15.462Z,29.50
2023-02-11T01:10:55.573Z,27.95
2023-02-11T01:12:27.223Z,28.02
2023-02-11T01:13:58.872Z,30.42
2023-02-11T01:15:30.602Z,30.15
2023-02-11T01:17:03.542Z,27.65
2023-02-11T01:18:35.341Z,27.27
2023-02-11T01:20:08.368Z,28.95
2023-02-11T01:21:40.153Z,27.73
2023-02-11T01:23:11.790Z,30.52
2023-02-11T01:24:43.509Z,31.42
2023-02-11T01:26:16.688Z,28.33
2023-02-11T01:27:48.723Z,28.52
2023-02-11T01:29:20.412Z,28.02
2023-02-11T01:30:52.424Z,28.80
2023-02-11T01:32:24.204Z,29.90
2023-02-11T01:33:56.095Z,30.63
2023-02-11T01:35:28.107Z,27.65
2023-02-11T01:37:00.083Z,30.70
2023-02-11T01:38:31.841Z,29.42
2023-02-11T01:40:03.753Z,30.50
2023-02-11T01:41:37.124Z,30.02
2023-02-11T01:43:10.567Z,29.63
2023-02-11T01:44:42.276Z,29.75
2023-02-11T01:46:34.352Z,29.90
2023-02-11T01:48:06.105Z,29.08
2023-02-11T01:49:41.087Z,30.25
2023-02-11T01:51:13.548Z,29.90
2023-02-11T01:52:47.264Z,29.88
2023-02-11T01:54:39.302Z,27.50
2023-02-11T01:56:29.433Z,26.73
2023-02-11T01:58:02.952Z,28.10
2023-02-11T01:59:45.580Z,27.63
2023-02-11T02:01:19.234Z,29.27
2023-02-11T02:02:54.822Z,29.92
2023-02-11T02:04:31.394Z,26.98
2023-02-11T02:06:06.018Z,29.10
2023-02-11T02:07:39.818Z,29.77
2023-02-11T02:09:13.196Z,29.38
2023-02-11T02:10:46.279Z,29.60
2023-02-11T02:12:18.062Z,29.33
2023-02-11T02:13:51.151Z,28.70
2023-02-11T02:15:34.549Z,28.20
2023-02-11T02:17:06.303Z,27.80
2023-02-11T02:18:41.185Z,26.95
2023-02-11T02:20:43.512Z,27.48
2023-02-11T02:22:42.127Z,27.77
2023-02-11T02:24:38.370Z,28.33
2023-02-11T02:26:37.587Z,27.92
2023-02-11T02:28:18.026Z,27.08
2023-02-11T02:30:03.027Z,27.10
2023-02-11T02:31:42.457Z,27.73
2023-02-11T02:33:24.462Z,27.73
2023-02-11T02:34:58.462Z,28.95
2023-02-11T02:36:32.232Z,27.35
2023-02-11T02:38:07.242Z,26.27
2023-02-11T02:39:38.847Z,27.17
2023-02-11T02:41:11.947Z,27.15
2023-02-11T02:42:43.647Z,31.15
2023-02-11T02:44:15.328Z,28.90
2023-02-11T02:45:46.999Z,29.20
2023-02-11T02:47:18.773Z,27.98
2023-02-11T02:48:52.788Z,32.00
2023-02-11T02:50:30.200Z,29.52
2023-02-11T02:52:10.861Z,30.38
2023-02-11T02:53:47.541Z,28.77
2023-02-11T02:55:31.121Z,29.83
2023-02-11T02:57:07.839Z,29.90
2023-02-11T02:58:53.143Z,32.00
2023-02-11T03:00:28.742Z,35.40
2023-02-11T03:02:11.026Z,30.27
2023-02-11T03:03:45.798Z,30.08
2023-02-11T03:05:21.793Z,29.63
2023-02-11T03:06:55.254Z,28.65
2023-02-11T03:08:30.067Z,29.13
2023-02-11T03:10:03.660Z,30.17
2023-02-11T03:11:35.652Z,29.73
2023-02-11T03:13:07.251Z,29.58
2023-02-11T03:14:39.015Z,29.52
2023-02-11T03:16:12.555Z,30.33
2023-02-11T03:17:47.844Z,33.25
2023-02-11T03:19:20.964Z,30.75
2023-02-11T03:20:54.162Z,29.85
2023-02-11T03:22:27.188Z,31.95
2023-02-11T03:24:01.104Z,29.95
2023-02-11T03:25:36.356Z,29.92
2023-02-11T03:27:10.903Z,31.13
2023-02-11T03:28:44.067Z,30.42
2023-02-11T03:30:17.558Z,32.30
2023-02-11T03:31:53.116Z,30.42
2023-02-11T03:33:27.004Z,31.33
2023-02-11T03:34:59.313Z,30.27
2023-02-11T03:36:38.565Z,31.00
2023-02-11T03:38:12.520Z,30.80
2023-02-11T03:39:46.870Z,29.70
2023-02-11T03:41:20.038Z,29.98
2023-02-11T03:42:53.479Z,29.70
2023-02-11T03:44:25.721Z,31.58
2023-02-11T03:45:57.483Z,31.33
2023-02-11T03:47:29.226Z,30.23
2023-02-11T03:49:03.085Z,29.70
2023-02-11T03:50:34.858Z,30.42
2023-02-11T03:52:07.974Z,29.77
2023-02-11T03:53:40.823Z,28.75
2023-02-11T03:55:13.744Z,31.00
2023-02-11T03:56:49.148Z,31.13
2023-02-11T03:58:20.948Z,28.77
2023-02-11T03:59:53.875Z,29.80
2023-02-11T04:01:25.572Z,29.30
2023-02-11T04:02:57.535Z,29.75
2023-02-11T04:04:29.212Z,31.00
2023-02-11T04:06:00.932Z,29.05
2023-02-11T04:07:34.091Z,29.10
2023-02-11T04:09:05.712Z,31.40
2023-02-11T04:10:39.815Z,31.33
2023-02-11T04:12:11.615Z,31.17
2023-02-11T04:13:51.330Z,31.35
2023-02-11T04:15:26.161Z,30.90
2023-02-11T04:16:57.851Z,30.95
2023-02-11T04:18:29.622Z,30.27
2023-02-11T04:20:02.921Z,30.95
2023-02-11T04:21:40.149Z,28.75
2023-02-11T04:23:13.216Z,29.48
2023-02-11T04:24:49.351Z,31.38
2023-02-11T04:26:23.337Z,31.52
2023-02-11T04:27:55.155Z,32.33
2023-02-11T04:29:28.306Z,34.92
2023-02-11T04:31:00.031Z,29.20
2023-02-11T04:32:31.864Z,30.95
2023-02-11T04:34:03.522Z,29.17
2023-02-11T04:35:35.500Z,29.10
2023-02-11T04:37:09.778Z,29.08
2023-02-11T04:38:42.929Z,31.02
2023-02-11T04:40:14.758Z,30.52
2023-02-11T04:41:46.415Z,30.70
2023-02-11T04:43:18.099Z,34.72
2023-02-11T04:44:49.744Z,31.65
2023-02-11T04:46:21.572Z,30.58
2023-02-11T04:47:53.703Z,32.70
2023-02-11T04:49:25.409Z,30.40
2023-02-11T04:50:57.046Z,31.17
2023-02-11T04:52:28.736Z,31.17
2023-02-11T04:54:16.203Z,34.10
2023-02-11T04:56:59.426Z,31.92
2023-02-11T05:01:48.020Z,31.42
2023-02-11T05:03:50.819Z,32.00
2023-02-11T05:06:16.216Z,31.75
2023-02-11T05:14:07.194Z,33.00
2023-02-11T05:17:37.741Z,31.17
2023-02-11T05:21:08.685Z,30.13
2023-02-11T05:22:51.981Z,33.45
2023-02-11T05:24:54.401Z,33.90
2023-02-11T05:26:44.297Z,33.50
2023-02-11T05:29:06.772Z,32.83
2023-02-11T05:32:12.751Z,32.17
2023-02-11T05:34:08.505Z,32.88
2023-02-11T05:35:43.123Z,33.03
2023-02-11T05:37:17.747Z,32.30
2023-02-11T05:38:50.644Z,31.73
2023-02-11T05:40:22.291Z,34.50
2023-02-11T05:41:55.337Z,34.63
2023-02-11T05:43:27.282Z,32.90
2023-02-11T05:44:58.980Z,33.17
2023-02-11T05:46:30.745Z,32.25
2023-02-11T05:48:02.357Z,32.95
2023-02-11T05:49:34.574Z,35.25
2023-02-11T05:51:06.227Z,35.10
2023-02-11T05:52:37.902Z,31.65
2023-02-11T05:54:09.716Z,31.33
2023-02-11T05:55:41.400Z,31.33
2023-02-11T05:57:14.685Z,36.15
2023-02-11T05:58:46.355Z,35.60
2023-02-11T06:00:18.493Z,34.47
2023-02-11T06:01:50.199Z,34.92
2023-02-11T06:03:21.811Z,34.15
2023-02-11T06:04:53.537Z,37.00
2023-02-11T06:06:25.196Z,37.28
2023-02-11T06:07:56.920Z,40.67
2023-02-11T06:09:28.651Z,40.90
2023-02-11T06:11:00.364Z,37.92
2023-02-11T06:12:33.509Z,36.00
2023-02-11T06:14:05.260Z,34.35
2023-02-11T06:15:37.039Z,34.47
2023-02-11T06:17:08.718Z,33.10
2023-02-11T06:18:40.360Z,32.25
2023-02-11T06:20:12.034Z,34.13
2023-02-11T06:21:44.627Z,36.72
2023-02-11T06:23:16.516Z,37.13
2023-02-11T06:25:00.743Z,35.30
2023-02-11T06:26:33.791Z,36.83
2023-02-11T06:28:06.920Z,38.17
2023-02-11T06:29:38.602Z,34.17
2023-02-11T06:31:11.788Z,37.00
2023-02-11T06:32:45.407Z,35.17
2023-02-11T06:34:17.683Z,35.55
2023-02-11T06:35:49.642Z,33.80
2023-02-11T06:37:21.514Z,34.90
2023-02-11T06:38:53.154Z,33.85
2023-02-11T06:40:24.908Z,34.47
2023-02-11T06:41:56.690Z,32.42
2023-02-11T06:43:29.941Z,32.00
2023-02-11T06:45:01.651Z,34.58
2023-02-11T06:46:33.379Z,34.95
2023-02-11T06:48:05.267Z,33.53
2023-02-11T06:49:36.912Z,34.38
2023-02-11T06:51:09.888Z,33.15
2023-02-11T06:52:41.570Z,32.10
2023-02-11T06:54:13.280Z,41.22
2023-02-11T06:55:45.000Z,35.55
2023-02-11T06:57:16.671Z,40.20
2023-02-11T06:58:52.256Z,40.15
2023-02-11T07:00:24.122Z,48.90
2023-02-11T07:01:55.837Z,49.78
2023-02-11T07:03:27.627Z,45.47
2023-02-11T07:04:59.279Z,54.65
2023-02-11T07:06:30.941Z,47.45
2023-02-11T07:08:02.939Z,51.97
2023-02-11T07:09:34.575Z,50.90
2023-02-11T07:11:09.601Z,49.63
2023-02-11T07:12:44.333Z,49.70
2023-02-11T07:14:17.409Z,49.92
2023-02-11T07:15:49.698Z,44.60
2023-02-11T07:17:21.458Z,44.90
2023-02-11T07:18:53.158Z,45.55
2023-02-11T07:20:25.470Z,40.35
2023-02-11T07:21:57.125Z,39.97
2023-02-11T07:23:29.119Z,41.42
2023-02-11T07:25:00.899Z,43.35
2023-02-11T07:26:32.776Z,50.75
2023-02-11T07:28:04.783Z,53.40
2023-02-11T07:29:37.993Z,53.00
2023-02-11T07:31:10.578Z,51.00
2023-02-11T07:32:42.247Z,49.63
2023-02-11T07:34:15.656Z,52.03
2023-02-11T07:35:48.762Z,49.78
2023-02-11T07:37:20.700Z,51.63
2023-02-11T07:38:52.411Z,53.40
2023-02-11T07:40:24.299Z,52.67
2023-02-11T07:41:56.006Z,50.38
2023-02-11T07:43:28.076Z,54.08
2023-02-11T07:45:01.622Z,43.95
2023-02-11T07:46:34.625Z,46.78
2023-02-11T07:48:06.658Z,53.15
2023-02-11T07:49:38.244Z,47.05
2023-02-11T07:51:11.148Z,45.00
2023-02-11T07:52:42.829Z,49.80
2023-02-11T07:54:14.494Z,52.50
2023-02-11T07:55:46.131Z,46.00
2023-02-11T07:57:17.777Z,52.13
2023-02-11T07:58:49.570Z,45.42
2023-02-11T08:00:22.731Z,42.28
2023-02-11T08:01:57.508Z,45.42
2023-02-11T08:03:29.353Z,43.17
2023-02-11T08:05:00.985Z,44.50
2023-02-11T08:06:33.933Z,50.70
2023-02-11T08:08:05.653Z,48.63
2023-02-11T08:09:37.763Z,48.85
2023-02-11T08:11:10.022Z,45.53
2023-02-11T08:12:41.699Z,46.08
2023-02-11T08:14:15.548Z,45.03
2023-02-11T08:15:49.376Z,49.75
2023-02-11T08:17:21.310Z,46.53
2023-02-11T08:18:53.420Z,49.13
2023-02-11T08:20:25.149Z,47.72
2023-02-11T08:21:57.131Z,51.47
2023-02-11T08:23:28.746Z,49.10
2023-02-11T08:25:00.415Z,50.55
2023-02-11T08:26:34.464Z,50.65
2023-02-11T08:28:06.366Z,63.95
2023-02-11T08:29:38.088Z,51.40
2023-02-11T08:31:12.128Z,48.97
2023-02-11T08:32:43.835Z,48.55
2023-02-11T08:34:18.488Z,57.53
2023-02-11T08:35:50.152Z,56.08
2023-02-11T08:37:23.007Z,55.92
2023-02-11T08:39:05.625Z,54.97
2023-02-11T08:40:44.100Z,54.17
2023-02-11T08:42:45.836Z,59.00
2023-02-11T08:44:17.769Z,60.13
2023-02-11T08:45:49.738Z,58.55
2023-02-11T08:47:23.045Z,49.42
2023-02-11T08:48:54.711Z,59.40
2023-02-11T08:50:28.405Z,60.58
2023-02-11T08:52:03.984Z,57.13
2023-02-11T08:53:39.772Z,60.15
2023-02-11T08:55:11.451Z,56.22
2023-02-11T08:56:46.207Z,58.78
2023-02-11T08:58:19.196Z,61.05
2023-02-11T08:59:53.328Z,58.92
2023-02-11T09:01:25.994Z,55.42
2023-02-11T09:03:02.286Z,53.33
2023-02-11T09:04:36.495Z,52.55
2023-02-11T09:06:08.794Z,52.50
2023-02-11T09:07:40.428Z,52.95
2023-02-11T09:09:14.930Z,49.78
2023-02-11T09:10:50.926Z,54.47
2023-02-11T09:12:22.752Z,48.42
2023-02-11T09:13:54.756Z,49.40
2023-02-11T09:15:26.813Z,49.80
2023-02-11T09:16:58.622Z,51.83
2023-02-11T09:18:31.790Z,45.97
2023-02-11T09:20:04.175Z,47.38
2023-02-11T09:21:42.307Z,47.90
2023-02-11T09:23:18.525Z,48.13
2023-02-11T09:24:50.369Z,50.15
2023-02-11T09:26:26.011Z,46.03
2023-02-11T09:27:57.720Z,46.58
2023-02-11T09:29:29.644Z,45.50
2023-02-11T09:31:06.127Z,47.60
2023-02-11T09:32:37.867Z,47.47
2023-02-11T09:34:11.999Z,48.72
2023-02-11T09:35:43.881Z,48.40
2023-02-11T09:37:16.097Z,50.15
2023-02-11T09:39:27.916Z,52.53
2023-02-11T09:41:27.618Z,51.35
2023-02-11T09:43:14.967Z,46.97
2023-02-11T09:44:46.998Z,52.22
2023-02-11T09:46:20.178Z,50.45
2023-02-11T09:47:55.801Z,49.45
2023-02-11T09:49:34.013Z,56.42
2023-02-11T09:51:05.934Z,50.63
2023-02-11T09:52:39.594Z,55.78
2023-02-11T09:54:19.514Z,58.35
2023-02-11T09:55:55.832Z,61.92
2023-02-11T09:57:33.381Z,60.25
2023-02-11T09:59:05.103Z,57.00
2023-02-11T10:00:38.226Z,53.63
2023-02-11T10:02:13.141Z,52.47
2023-02-11T10:03:54.231Z,49.58
2023-02-11T10:05:34.055Z,47.42
2023-02-11T10:07:08.592Z,53.88
2023-02-11T10:08:42.812Z,49.75
2023-02-11T10:10:17.992Z,57.45
2023-02-11T10:11:52.610Z,60.70
2023-02-11T10:13:42.429Z,49.35
2023-02-11T10:15:24.722Z,52.42
2023-02-11T10:17:01.697Z,52.42
2023-02-11T10:18:48.238Z,50.00
2023-02-11T10:20:24.849Z,54.63
2023-02-11T10:22:06.222Z,49.90
2023-02-11T10:23:39.530Z,54.30
2023-02-11T10:25:22.177Z,54.38
2023-02-11T10:26:56.857Z,54.97
2023-02-11T10:28:30.217Z,56.13
2023-02-11T10:30:05.141Z,55.00
2023-02-11T10:31:38.859Z,51.47
2023-02-11T10:33:14.101Z,51.03
2023-02-11T10:34:45.767Z,50.00
2023-02-11T10:36:18.533Z,49.67
2023-02-11T10:37:51.627Z,52.85
2023-02-11T10:39:25.577Z,50.95
2023-02-11T10:40:57.351Z,53.13
2023-02-11T10:42:29.041Z,49.83
2023-02-11T10:44:00.822Z,54.28
2023-02-11T10:45:33.840Z,53.78
2023-02-11T10:47:12.794Z,51.65
2023-02-11T10:48:45.895Z,49.90
2023-02-11T10:50:19.611Z,50.85
2023-02-11T10:51:58.189Z,53.20
2023-02-11T10:53:34.930Z,49.90
2023-02-11T10:55:14.810Z,50.42
2023-02-11T10:56:50.301Z,52.08
2023-02-11T10:58:26.252Z,49.35
2023-02-11T11:00:05.378Z,49.67
2023-02-11T11:01:40.924Z,48.65
2023-02-11T11:03:17.347Z,51.78
2023-02-11T11:04:49.193Z,50.13
2023-02-11T11:06:29.385Z,47.03
2023-02-11T11:08:04.527Z,47.10
2023-02-11T11:09:46.389Z,48.72
2023-02-11T11:11:18.892Z,48.90
2023-02-11T11:12:53.135Z,46.15
2023-02-11T11:14:28.915Z,46.38
2023-02-11T11:16:13.139Z,50.63
2023-02-11T11:17:44.942Z,50.95
2023-02-11T11:19:24.253Z,48.97
2023-02-11T11:20:56.685Z,49.15
2023-02-11T11:22:28.593Z,49.50
2023-02-11T11:24:01.180Z,48.08
2023-02-11T11:25:43.198Z,50.85
2023-02-11T11:27:17.844Z,50.15
2023-02-11T11:29:00.167Z,46.83
2023-02-11T11:30:34.865Z,48.00
2023-02-11T11:32:11.114Z,47.97
2023-02-11T11:33:44.145Z,50.45
2023-02-11T11:35:24.408Z,46.60
2023-02-11T11:36:56.556Z,47.35
2023-02-11T11:38:28.377Z,46.60
2023-02-11T11:40:02.470Z,48.53
2023-02-11T11:41:35.574Z,49.65
2023-02-11T11:43:20.245Z,48.53
2023-02-11T11:44:58.325Z,46.00
2023-02-11T11:46:32.609Z,46.75
2023-02-11T11:48:06.088Z,44.42
2023-02-11T11:49:41.974Z,44.40
2023-02-11T11:51:13.698Z,44.45
2023-02-11T11:52:51.169Z,41.90
2023-02-11T11:54:23.287Z,42.63
2023-02-11T11:55:59.914Z,45.60
2023-02-11T11:57:42.312Z,43.97
2023-02-11T11:59:31.169Z,45.53
2023-02-11T12:01:28.705Z,45.45
2023-02-11T12:03:28.415Z,43.97
2023-02-11T12:05:05.818Z,43.60
2023-02-11T12:06:43.170Z,45.40
2023-02-11T12:08:17.354Z,44.15
2023-02-11T12:09:55.592Z,44.90
2023-02-11T12:11:31.810Z,46.38
2023-02-11T12:13:40.172Z,43.65
2023-02-11T12:15:52.393Z,42.38
2023-02-11T12:17:52.415Z,44.30
2023-02-11T12:19:36.635Z,43.03
2023-02-11T12:21:37.212Z,43.15
2023-02-11T12:23:19.957Z,44.03
2023-02-11T12:25:03.225Z,44.92
2023-02-11T12:26:38.825Z,42.08
2023-02-11T12:28:24.075Z,42.78
2023-02-11T12:30:01.479Z,43.53
2023-02-11T12:31:41.062Z,42.05
2023-02-11T12:33:16.821Z,43.20
2023-02-11T12:35:07.420Z,43.40
2023-02-11T12:36:54.625Z,43.58
2023-02-11T12:38:32.856Z,42.63
2023-02-11T12:40:13.560Z,44.10
2023-02-11T12:42:12.346Z,44.42
2023-02-11T12:43:45.553Z,42.13
2023-02-11T12:45:33.495Z,42.75
2023-02-11T12:47:10.804Z,41.63
2023-02-11T12:48:59.504Z,40.15
2023-02-11T12:50:35.771Z,42.85
2023-02-11T12:52:17.999Z,40.22
2023-02-11T12:53:58.960Z,41.85
2023-02-11T12:55:35.812Z,41.97
2023-02-11T12:57:11.262Z,42.28
2023-02-11T12:58:45.686Z,40.28
2023-02-11T13:00:21.899Z,39.88
2023-02-11T13:01:53.598Z,38.65
2023-02-11T13:03:28.531Z,38.55
2023-02-11T13:05:02.063Z,39.60
2023-02-11T13:06:40.577Z,39.40
2023-02-11T13:08:15.512Z,39.60
2023-02-11T13:09:49.363Z,39.67
2023-02-11T13:11:22.986Z,40.00
2023-02-11T13:13:14.212Z,41.20
2023-02-11T13:14:46.001Z,40.25
2023-02-11T13:16:33.110Z,38.15
2023-02-11T13:18:10.080Z,40.30
2023-02-11T13:19:44.263Z,37.90
2023-02-11T13:21:46.179Z,39.28
2023-02-11T13:23:21.744Z,38.65
2023-02-11T13:24:56.052Z,40.42
2023-02-11T13:26:29.841Z,38.30
2023-02-11T13:28:05.575Z,39.28
2023-02-11T13:30:04.406Z,37.85
2023-02-11T13:31:38.316Z,36.40
2023-02-11T13:33:32.871Z,37.42
2023-02-11T13:35:26.587Z,36.03
2023-02-11T13:36:58.333Z,36.45
2023-02-11T13:38:30.171Z,37.20
2023-02-11T13:40:02.703Z,35.13
2023-02-11T13:41:37.038Z,37.95
2023-02-11T13:43:20.494Z,35.78
2023-02-11T13:44:52.194Z,37.35
2023-02-11T13:46:24.073Z,33.80
2023-02-11T13:47:58.102Z,34.10
2023-02-11T13:49:32.034Z,37.15
2023-02-11T13:51:05.934Z,36.40
2023-02-11T13:52:38.055Z,38.17
2023-02-11T13:54:18.700Z,37.55
2023-02-11T13:55:51.345Z,37.33
2023-02-11T13:57:38.968Z,35.95
2023-02-11T13:59:44.049Z,36.00
2023-02-11T14:01:42.301Z,35.10
2023-02-11T14:03:49.237Z,33.67
2023-02-11T14:05:47.511Z,34.38
2023-02-11T14:07:45.461Z,33.25
2023-02-11T14:09:38.202Z,34.20
2023-02-11T14:11:26.590Z,34.05
2023-02-11T14:13:18.428Z,34.33
2023-02-11T14:15:15.067Z,34.65
2023-02-11T14:17:23.462Z,34.78
2023-02-11T14:19:00.606Z,34.28
2023-02-11T14:20:35.369Z,34.60
2023-02-11T14:22:13.526Z,33.83
2023-02-11T14:23:45.377Z,34.03
2023-02-11T14:25:20.656Z,33.10
2023-02-11T14:26:54.445Z,35.05
2023-02-11T14:28:27.048Z,34.15
2023-02-11T14:30:34.442Z,33.30
2023-02-11T14:32:09.128Z,33.50
2023-02-11T14:33:52.276Z,33.28
2023-02-11T14:35:28.491Z,34.58
2023-02-11T14:37:12.466Z,34.83
2023-02-11T14:38:52.391Z,32.85
2023-02-11T14:40:27.731Z,33.10
2023-02-11T14:41:59.367Z,33.78
2023-02-11T14:43:43.495Z,33.90
2023-02-11T14:45:18.205Z,33.10
2023-02-11T14:46:50.705Z,33.58
2023-02-11T14:48:23.855Z,33.15
2023-02-11T14:49:57.716Z,32.53
2023-02-11T14:51:31.571Z,32.92
2023-02-11T14:53:03.304Z,34.30
2023-02-11T14:54:34.956Z,34.25
2023-02-11T14:56:22.960Z,35.53
2023-02-11T14:58:08.920Z,36.83
2023-02-11T14:59:52.561Z,36.92
2023-02-11T15:01:32.708Z,37.08
2023-02-11T15:03:04.437Z,39.15
2023-02-11T15:04:42.262Z,38.25
2023-02-11T15:06:20.515Z,37.97
2023-02-11T15:07:54.527Z,38.83
2023-02-11T15:09:36.628Z,38.40
2023-02-11T15:11:10.614Z,38.45
2023-02-11T15:12:42.475Z,40.65
2023-02-11T15:14:18.962Z,39.97
2023-02-11T15:15:50.979Z,40.13
2023-02-11T15:17:23.644Z,40.55
2023-02-11T15:18:56.313Z,40.00
2023-02-11T15:20:29.129Z,39.55
2023-02-11T15:22:00.833Z,40.45
2023-02-11T15:23:33.942Z,41.45
2023-02-11T15:25:10.592Z,41.55
2023-02-11T15:26:42.220Z,41.30
2023-02-11T15:28:21.885Z,42.25
2023-02-11T15:29:53.750Z,42.13
2023-02-11T15:31:26.305Z,42.08
2023-02-11T15:33:00.013Z,42.05
2023-02-11T15:34:32.411Z,42.53
2023-02-11T15:36:04.716Z,41.42
2023-02-11T15:37:36.347Z,41.42
2023-02-11T15:39:19.854Z,41.30
2023-02-11T15:40:53.383Z,40.00
2023-02-11T15:42:26.250Z,41.97
2023-02-11T15:43:57.924Z,42.65
2023-02-11T15:45:30.663Z,40.80
2023-02-11T15:47:02.369Z,41.13
2023-02-11T15:48:35.739Z,39.92
2023-02-11T15:50:08.208Z,40.40
2023-02-11T15:51:42.479Z,39.42
2023-02-11T15:53:23.502Z,39.80
2023-02-11T15:54:56.754Z,40.55
2023-02-11T15:56:30.512Z,40.65
2023-02-11T15:58:02.210Z,40.65
2023-02-11T15:59:35.985Z,40.47
2023-02-11T16:01:07.688Z,41.40
2023-02-11T16:02:45.206Z,41.83
2023-02-11T16:04:17.493Z,44.78
2023-02-11T16:05:52.346Z,40.42
2023-02-11T16:07:43.824Z,40.75
2023-02-11T16:09:29.774Z,41.22
2023-02-11T16:11:08.598Z,41.53
2023-02-11T16:12:40.276Z,39.90
2023-02-11T16:14:23.103Z,39.63
2023-02-11T16:15:55.147Z,37.78
2023-02-11T16:17:30.186Z,37.38
2023-02-11T16:19:06.250Z,39.95
2023-02-11T16:20:38.423Z,40.30
2023-02-11T16:22:11.316Z,38.17
2023-02-11T16:23:43.043Z,39.42
2023-02-11T16:25:19.061Z,37.58
2023-02-11T16:26:53.561Z,38.05
2023-02-11T16:28:25.286Z,38.55
2023-02-11T16:29:57.112Z,38.15
2023-02-11T16:31:33.226Z,36.95
2023-02-11T16:33:06.689Z,35.92
2023-02-11T16:34:38.397Z,36.33
2023-02-11T16:36:12.075Z,36.75
2023-02-11T16:37:43.748Z,36.45
2023-02-11T16:39:17.541Z,36.22
2023-02-11T16:40:50.100Z,37.78
2023-02-11T16:42:23.574Z,38.50
2023-02-11T16:43:57.084Z,35.95
2023-02-11T16:45:28.752Z,41.10
2023-02-11T16:47:00.804Z,40.80
2023-02-11T16:48:32.454Z,39.88
2023-02-11T16:50:04.703Z,38.15
2023-02-11T16:51:38.614Z,36.45
2023-02-11T16:53:10.422Z,36.92
2023-02-11T16:54:42.106Z,37.20
2023-02-11T16:56:15.532Z,35.13
2023-02-11T16:57:48.919Z,36.50
2023-02-11T16:59:20.662Z,36.40
2023-02-11T17:00:52.816Z,36.65
2023-02-11T17:02:25.813Z,36.15
2023-02-11T17:03:57.442Z,36.42
2023-02-11T17:05:29.109Z,36.92
2023-02-11T17:07:00.740Z,36.38
2023-02-11T17:08:32.561Z,36.35
2023-02-11T17:10:06.141Z,36.58
2023-02-11T17:11:37.843Z,37.30
2023-02-11T17:13:11.344Z,36.95
2023-02-11T17:14:43.029Z,38.53
2023-02-11T17:16:17.169Z,39.67
2023-02-11T17:17:48.885Z,39.20
2023-02-11T17:19:21.407Z,40.67
2023-02-11T17:20:53.090Z,47.80
2023-02-11T17:22:24.739Z,51.58
2023-02-11T17:23:56.455Z,57.20
2023-02-11T17:25:28.313Z,60.67
2023-02-11T17:27:00.035Z,43.50
2023-02-11T17:28:33.195Z,41.03
2023-02-11T17:30:05.986Z,39.45
2023-02-11T17:31:37.879Z,38.78
2023-02-11T17:33:09.633Z,37.53
2023-02-11T17:34:43.782Z,39.10
2023-02-11T17:36:15.801Z,39.90
2023-02-11T17:37:47.575Z,38.67
2023-02-11T17:39:21.044Z,38.47
2023-02-11T17:40:59.276Z,38.58
2023-02-11T17:42:31.523Z,38.75
2023-02-11T17:44:05.006Z,39.28
2023-02-11T17:45:43.955Z,37.83
2023-02-11T17:47:15.781Z,37.70
2023-02-11T17:48:47.508Z,37.30
2023-02-11T17:50:19.463Z,36.85
2023-02-11T17:51:52.425Z,36.97
2023-02-11T17:53:24.171Z,37.58
2023-02-11T17:54:56.094Z,36.85
2023-02-11T17:56:31.073Z,37.72
2023-02-11T17:58:05.574Z,37.15
2023-02-11T17:59:38.613Z,40.15
2023-02-11T18:01:10.395Z,44.95
2023-02-11T18:02:42.091Z,46.05
2023-02-11T18:04:15.243Z,43.70
2023-02-11T18:05:47.080Z,42.55
2023-02-11T18:07:21.341Z,40.40
2023-02-11T18:08:55.075Z,39.17
2023-02-11T18:10:31.201Z,37.33
2023-02-11T18:12:02.929Z,35.15
2023-02-11T18:13:34.756Z,36.25
2023-02-11T18:15:08.542Z,36.70
2023-02-11T18:16:43.184Z,35.55
2023-02-11T18:18:15.138Z,35.53
2023-02-11T18:19:47.000Z,34.50
2023-02-11T18:21:19.763Z,36.67
2023-02-11T18:22:54.336Z,35.83
2023-02-11T18:24:26.193Z,38.20
2023-02-11T18:25:57.832Z,38.85
2023-02-11T18:27:29.589Z,37.30
2023-02-11T18:29:05.231Z,36.42
2023-02-11T18:30:38.301Z,37.65
2023-02-11T18:32:10.037Z,37.40
2023-02-11T18:33:42.177Z,39.03
2023-02-11T18:35:15.897Z,38.95
2023-02-11T18:36:48.880Z,36.40
2023-02-11T18:38:20.695Z,35.83
2023-02-11T18:39:52.573Z,36.38
2023-02-11T18:41:24.286Z,38.70
2023-02-11T18:42:58.312Z,37.33
2023-02-11T18:44:32.820Z,36.03
2023-02-11T18:46:12.098Z,36.88
2023-02-11T18:47:43.874Z,40.35
2023-02-11T18:49:15.740Z,42.17
2023-02-11T18:50:47.459Z,43.92
2023-02-11T18:52:19.142Z,44.38
2023-02-11T18:53:50.818Z,46.25
2023-02-11T18:55:25.765Z,44.10
2023-02-11T18:56:57.465Z,43.95
2023-02-11T18:58:29.103Z,41.08
2023-02-11T19:00:00.855Z,43.28
2023-02-11T19:01:34.645Z,44.40
2023-02-11T19:03:06.349Z,41.75
2023-02-11T19:04:38.362Z,40.38
2023-02-11T19:06:14.417Z,40.50
2023-02-11T19:07:46.067Z,38.80
2023-02-11T19:09:18.845Z,40.42
2023-02-11T19:10:50.576Z,37.67
2023-02-11T19:12:22.911Z,37.05
2023-02-11T19:13:56.925Z,35.25
2023-02-11T19:15:28.552Z,34.28
2023-02-11T19:17:03.109Z,35.70
2023-02-11T19:18:34.893Z,35.63
2023-02-11T19:21:58.136Z,32.03
2023-02-11T19:23:31.482Z,34.55
2023-02-11T19:25:05.368Z,31.88
2023-02-11T19:26:37.502Z,32.80
2023-02-11T19:28:09.197Z,32.95
2023-02-11T19:29:44.037Z,32.22
2023-02-11T19:31:15.833Z,32.97
2023-02-11T19:32:52.499Z,32.97
2023-02-11T19:34:24.174Z,32.20
2023-02-11T19:35:55.834Z,33.28
2023-02-11T19:37:27.575Z,33.28
2023-02-11T19:38:59.823Z,33.63
2023-02-11T19:40:31.535Z,33.60
2023-02-11T19:42:03.336Z,36.67
2023-02-11T19:43:35.080Z,37.70
2023-02-11T19:45:07.497Z,39.28
2023-02-11T19:46:40.892Z,38.33
2023-02-11T19:48:14.211Z,36.88
2023-02-11T19:49:45.991Z,36.33
2023-02-11T19:51:19.695Z,36.08
2023-02-11T19:52:51.408Z,34.92
2023-02-11T19:54:23.129Z,34.88
2023-02-11T19:55:54.788Z,34.97
2023-02-11T19:57:26.906Z,34.58
2023-02-11T19:58:58.602Z,33.17
2023-02-11T20:00:30.428Z,34.08
2023-02-11T20:02:02.094Z,34.10
2023-02-11T20:03:35.202Z,33.22
2023-02-11T20:05:07.421Z,33.67
2023-02-11T20:06:39.070Z,33.15
2023-02-11T20:08:11.180Z,31.60
2023-02-11T20:09:43.062Z,32.90
2023-02-11T20:11:15.671Z,33.42
2023-02-11T20:12:47.351Z,30.92
2023-02-11T20:14:20.209Z,32.45
2023-02-11T20:15:52.176Z,31.85
2023-02-11T20:17:24.050Z,32.30
2023-02-11T20:19:02.113Z,30.50
2023-02-11T20:20:33.926Z,29.15
2023-02-11T20:22:05.992Z,30.50
2023-02-11T20:23:40.815Z,30.08
2023-02-11T20:25:12.608Z,32.80
2023-02-11T20:26:45.267Z,30.13
2023-02-11T20:28:17.137Z,29.05
2023-02-11T20:29:49.264Z,29.70
2023-02-11T20:31:21.092Z,27.98
2023-02-11T20:32:52.868Z,29.70
2023-02-11T20:34:26.033Z,28.00
2023-02-11T20:35:57.972Z,29.30
2023-02-11T20:37:29.650Z,30.08
2023-02-11T20:39:01.795Z,28.73
2023-02-11T20:40:33.479Z,29.13
2023-02-11T20:42:09.749Z,30.20
2023-02-11T20:43:41.623Z,30.88
2023-02-11T20:45:15.626Z,28.27